createdAt,value
2023-03-17T00:39:18.404Z,19.52
2023-03-17T00:49:18.340Z,19.49
2023-03-17T01:07:18.407Z,19.45
2023-03-17T01:08:18.413Z,19.48
2023-03-17T01:09:18.497Z,19.44
2023-03-17T01:10:18.460Z,19.42
2023-03-17T01:11:18.418Z,19.45
2023-03-17T01:12:18.438Z,19.44
2023-03-17T01:13:18.414Z,19.44
2023-03-17T01:14:18.406Z,19.39
2023-03-17T01:15:18.415Z,19.45
2023-03-17T01:16:18.487Z,19.47
2023-03-17T01:17:18.425Z,19.47
2023-03-17T01:18:18.466Z,19.44
2023-03-17T01:19:18.421Z,19.41
2023-03-17T01:20:18.428Z,19.44
2023-03-17T01:21:18.429Z,19.45
2023-03-17T01:22:18.424Z,19.44
2023-03-17T01:23:18.455Z,19.44
2023-03-17T01:24:18.454Z,19.45
2023-03-17T01:25:18.474Z,19.45
2023-03-17T01:26:18.474Z,19.41
2023-03-17T01:27:18.484Z,19.42
2023-03-17T01:28:18.522Z,19.42
2023-03-17T01:29:18.540Z,19.41
2023-03-17T01:30:18.472Z,19.42
2023-03-17T01:31:18.522Z,19.44
2023-03-17T01:32:18.489Z,19.41
2023-03-17T01:33:18.494Z,19.41
2023-03-17T01:34:18.511Z,19.39
2023-03-17T01:35:18.562Z,19.38
2023-03-17T01:36:18.504Z,19.41
2023-03-17T01:37:18.506Z,19.41
2023-03-17T01:38:18.513Z,19.38
2023-03-17T01:39:18.523Z,19.39
2023-03-17T01:40:18.547Z,19.41
2023-03-17T01:41:18.560Z,19.39
2023-03-17T01:42:18.561Z,19.38
2023-03-17T01:43:18.571Z,19.41
2023-03-17T01:44:18.599Z,19.38
2023-03-17T01:45:18.609Z,19.39
2023-03-17T01:46:18.595Z,19.37
2023-03-17T01:47:18.611Z,19.38
2023-03-17T01:48:18.623Z,19.38
2023-03-17T01:49:18.634Z,19.37
2023-03-17T01:50:18.648Z,19.41
2023-03-17T01:51:18.660Z,19.37
2023-03-17T01:52:18.665Z,19.37
2023-03-17T01:53:18.680Z,19.37
2023-03-17T01:54:18.681Z,19.35
2023-03-17T01:55:18.706Z,19.37
2023-03-17T01:56:18.713Z,19.34
2023-03-17T01:57:18.723Z,19.35
2023-03-17T01:58:18.735Z,19.38
2023-03-17T01:59:18.737Z,19.35
2023-03-17T02:00:18.748Z,19.32
2023-03-17T02:01:18.827Z,19.34
2023-03-17T02:02:18.775Z,19.35
2023-03-17T02:03:18.800Z,19.32
2023-03-17T02:04:18.877Z,19.37
2023-03-17T02:05:18.817Z,19.34
2023-03-17T02:06:18.820Z,19.34
2023-03-17T02:07:18.834Z,19.31
2023-03-17T02:08:18.836Z,19.32
2023-03-17T02:09:18.846Z,19.35
2023-03-17T02:10:18.863Z,19.32
2023-03-17T02:11:18.872Z,19.34
2023-03-17T02:12:19.092Z,19.34
2023-03-17T02:13:18.882Z,19.32
2023-03-17T02:14:18.896Z,19.32
2023-03-17T02:15:18.907Z,19.34
2023-03-17T02:16:18.963Z,19.34
2023-03-17T02:17:18.939Z,19.30
2023-03-17T02:18:19.599Z,19.31
2023-03-17T02:19:18.977Z,19.31
2023-03-17T02:20:19.011Z,19.31
2023-03-17T02:21:18.990Z,19.30
2023-03-17T02:22:19.082Z,19.30
2023-03-17T02:23:19.003Z,19.30
2023-03-17T02:24:19.090Z,19.28
2023-03-17T02:25:19.033Z,19.30
2023-03-17T02:26:19.089Z,19.30
2023-03-17T02:27:19.068Z,19.30
2023-03-17T02:28:19.079Z,19.28
2023-03-17T02:29:19.092Z,19.28
2023-03-17T02:30:19.093Z,19.25
2023-03-17T02:31:19.153Z,19.27
2023-03-17T02:32:19.138Z,19.28
2023-03-17T02:33:19.148Z,19.25
2023-03-17T02:34:19.162Z,19.27
2023-03-17T02:35:19.187Z,19.28
2023-03-17T02:36:19.230Z,19.28
2023-03-17T02:37:19.227Z,19.27
2023-03-17T02:38:19.228Z,19.30
2023-03-17T02:39:19.306Z,19.24
2023-03-17T02:40:19.243Z,19.25
2023-03-17T02:41:19.279Z,19.24
2023-03-17T02:42:19.256Z,19.30
2023-03-17T02:43:19.281Z,19.27
2023-03-17T02:44:19.297Z,19.28
2023-03-17T02:45:19.294Z,19.27
2023-03-17T02:46:19.340Z,19.28
2023-03-17T02:47:19.515Z,19.27
2023-03-17T02:48:19.321Z,19.27
2023-03-17T02:49:19.354Z,19.27
2023-03-17T02:50:19.343Z,19.25
2023-03-17T02:51:19.359Z,19.25
2023-03-17T02:52:20.104Z,19.28
2023-03-17T02:53:19.364Z,19.25
2023-03-17T02:54:19.367Z,19.25
2023-03-17T02:55:19.374Z,19.24
2023-03-17T02:56:19.380Z,19.27
2023-03-17T02:57:19.370Z,19.27
2023-03-17T02:58:19.381Z,19.23
2023-03-17T02:59:20.105Z,19.21
2023-03-17T03:00:19.399Z,19.25
2023-03-17T03:01:19.417Z,19.25
2023-03-17T03:02:19.438Z,19.24
2023-03-17T03:03:19.417Z,19.30
2023-03-17T03:04:19.429Z,19.27
2023-03-17T03:05:19.419Z,19.27
2023-03-17T03:06:19.436Z,19.24
2023-03-17T03:07:19.432Z,19.25
2023-03-17T03:08:19.454Z,19.25
2023-03-17T03:09:19.452Z,19.23
2023-03-17T03:10:19.454Z,19.24
2023-03-17T03:11:19.459Z,19.25
2023-03-17T03:12:19.461Z,19.28
2023-03-17T03:13:19.459Z,19.24
2023-03-17T03:14:19.478Z,19.28
2023-03-17T03:15:19.540Z,19.25
2023-03-17T03:16:19.695Z,19.25
2023-03-17T03:17:19.490Z,19.27
2023-03-17T03:18:19.490Z,19.24
2023-03-17T03:19:19.516Z,19.27
2023-03-17T03:20:19.502Z,19.24
2023-03-17T03:21:19.498Z,19.24
2023-03-17T03:22:19.486Z,19.25
2023-03-17T03:23:19.494Z,19.25
2023-03-17T03:24:19.493Z,19.25
2023-03-17T03:25:19.506Z,19.27
2023-03-17T03:26:20.125Z,19.27
2023-03-17T03:27:20.116Z,19.24
2023-03-17T03:28:19.503Z,19.24
2023-03-17T03:29:19.522Z,19.25
2023-03-17T03:30:19.613Z,19.27
2023-03-17T03:31:19.528Z,19.23
2023-03-17T03:32:19.517Z,19.27
2023-03-17T03:33:19.530Z,19.25
2023-03-17T03:34:19.530Z,19.23
2023-03-17T03:35:19.535Z,19.24
2023-03-17T03:36:19.537Z,19.21
2023-03-17T03:37:19.551Z,19.24
2023-03-17T03:38:19.553Z,19.23
2023-03-17T03:39:19.576Z,19.24
2023-03-17T03:40:19.572Z,19.25
2023-03-17T03:41:19.618Z,19.25
2023-03-17T03:42:19.570Z,19.23
2023-03-17T03:43:23.336Z,19.24
2023-03-17T03:44:19.556Z,19.23
2023-03-17T03:45:19.561Z,19.25
2023-03-17T03:46:19.535Z,19.21
2023-03-17T03:47:19.503Z,19.23
2023-03-17T03:48:19.496Z,19.20
2023-03-17T03:49:19.477Z,19.21
2023-03-17T03:50:19.458Z,19.23
2023-03-17T03:51:19.436Z,19.23
2023-03-17T03:52:19.422Z,19.21
2023-03-17T03:53:19.405Z,19.21
2023-03-17T03:54:19.395Z,19.21
2023-03-17T03:55:19.384Z,19.23
2023-03-17T03:56:19.358Z,19.24
2023-03-17T03:57:19.348Z,19.23
2023-03-17T03:58:19.339Z,19.21
2023-03-17T03:59:19.317Z,19.20
2023-03-17T04:01:19.332Z,19.20
2023-03-17T04:55:19.060Z,19.11
2023-03-17T04:59:19.211Z,19.11
2023-03-17T05:04:30.854Z,19.11
2023-03-17T05:07:19.084Z,19.10
2023-03-17T05:14:18.968Z,19.10
2023-03-17T05:15:18.960Z,19.10
2023-03-17T05:16:18.966Z,19.10
2023-03-17T05:17:18.917Z,19.07
2023-03-17T05:19:18.886Z,19.10
2023-03-17T05:20:18.862Z,19.11
2023-03-17T05:22:18.832Z,19.09
2023-03-17T05:23:18.823Z,19.07
2023-03-17T05:24:18.810Z,19.09
2023-03-17T05:25:18.790Z,19.09
2023-03-17T05:26:18.878Z,19.10
2023-03-17T05:27:18.817Z,19.09
2023-03-17T05:28:18.830Z,19.11
2023-03-17T05:30:18.813Z,19.07
2023-03-17T05:31:18.794Z,19.10
2023-03-17T05:32:18.761Z,19.11
2023-03-17T05:33:18.735Z,19.11
2023-03-17T05:35:18.712Z,19.06
2023-03-17T05:36:18.703Z,19.07
2023-03-17T05:37:18.672Z,19.06
2023-03-17T05:38:18.648Z,19.03
2023-03-17T05:39:19.143Z,19.09
2023-03-17T05:40:18.625Z,19.06
2023-03-17T05:41:18.612Z,19.07
2023-03-17T05:42:18.598Z,19.04
2023-03-17T05:52:18.430Z,19.04
2023-03-17T05:53:18.419Z,19.06
2023-03-17T05:54:18.435Z,19.06
2023-03-17T05:55:18.434Z,19.07
2023-03-17T05:56:18.463Z,19.06
2023-03-17T05:57:18.486Z,19.03
2023-03-17T05:58:18.498Z,19.03
2023-03-17T05:59:18.561Z,19.07
2023-03-17T06:00:18.545Z,19.04
2023-03-17T06:01:18.548Z,19.06
2023-03-17T06:02:18.634Z,19.07
2023-03-17T06:03:18.672Z,19.06
2023-03-17T06:04:18.608Z,19.03
2023-03-17T06:05:18.690Z,19.04
2023-03-17T06:06:18.636Z,19.04
2023-03-17T06:07:18.642Z,19.06
2023-03-17T06:08:18.654Z,19.07
2023-03-17T06:09:18.692Z,19.03
2023-03-17T06:10:18.712Z,19.03
2023-03-17T06:11:18.704Z,19.03
2023-03-17T06:12:18.726Z,19.03
2023-03-17T06:13:18.728Z,19.06
2023-03-17T06:14:18.795Z,19.06
2023-03-17T06:15:18.755Z,19.02
2023-03-17T06:16:18.884Z,19.04
2023-03-17T06:17:18.787Z,19.03
2023-03-17T06:18:18.768Z,19.04
2023-03-17T06:19:18.812Z,19.02
2023-03-17T06:20:18.808Z,19.07
2023-03-17T06:21:18.913Z,19.15
2023-03-17T06:22:18.881Z,19.20
2023-03-17T06:23:18.940Z,19.24
2023-03-17T06:24:18.981Z,19.23
2023-03-17T06:25:18.955Z,19.25
2023-03-17T06:26:18.975Z,19.28
2023-03-17T06:27:18.985Z,19.30
2023-03-17T06:28:19.590Z,19.25
2023-03-17T06:29:19.050Z,19.31
2023-03-17T06:30:19.082Z,19.31
2023-03-17T06:31:19.200Z,19.27
2023-03-17T06:32:20.882Z,19.30
2023-03-17T06:33:19.156Z,19.21
2023-03-17T06:34:19.163Z,19.23
2023-03-17T06:35:19.291Z,19.17
2023-03-17T06:36:19.254Z,19.14
2023-03-17T06:37:19.329Z,19.13
2023-03-17T06:38:19.352Z,19.06
2023-03-17T06:39:19.425Z,19.04
2023-03-17T06:40:19.449Z,19.00
2023-03-17T06:41:19.489Z,19.02
2023-03-17T06:42:19.537Z,18.99
2023-03-17T06:43:19.564Z,18.93
2023-03-17T06:44:19.684Z,18.95
2023-03-17T06:45:19.662Z,18.97
2023-03-17T06:46:19.726Z,18.96
2023-03-17T06:47:19.718Z,18.96
2023-03-17T06:48:19.752Z,18.97
2023-03-17T06:49:19.768Z,18.96
2023-03-17T06:50:20.594Z,18.96
2023-03-17T06:51:19.811Z,18.96
2023-03-17T06:52:19.842Z,18.95
2023-03-17T06:53:19.844Z,18.96
2023-03-17T06:54:19.887Z,18.93
2023-03-17T06:55:19.890Z,18.96
2023-03-17T06:56:29.565Z,18.99
2023-03-17T06:58:19.890Z,18.96
2023-03-17T06:59:19.892Z,18.93
2023-03-17T07:00:19.873Z,18.97
2023-03-17T07:01:19.904Z,18.96
2023-03-17T07:02:19.863Z,18.95
2023-03-17T07:03:19.840Z,18.97
2023-03-17T07:04:19.860Z,18.95
2023-03-17T07:05:19.826Z,18.96
2023-03-17T07:06:19.832Z,18.96
2023-03-17T07:07:19.844Z,18.96
2023-03-17T07:08:19.822Z,18.95
2023-03-17T07:09:19.790Z,18.97
2023-03-17T07:10:21.517Z,18.97
2023-03-17T07:11:21.597Z,18.97
2023-03-17T07:12:19.766Z,18.96
2023-03-17T07:13:19.758Z,18.97
2023-03-17T07:14:19.778Z,18.96
2023-03-17T07:15:19.783Z,18.93
2023-03-17T07:16:19.809Z,18.95
2023-03-17T07:17:19.803Z,18.96
2023-03-17T07:18:19.786Z,18.97
2023-03-17T07:19:19.811Z,18.96
2023-03-17T07:20:19.811Z,18.95
2023-03-17T07:21:19.862Z,18.93
2023-03-17T07:22:20.183Z,18.93
2023-03-17T07:23:19.866Z,18.95
2023-03-17T07:24:19.891Z,18.95
2023-03-17T07:25:20.463Z,18.96
2023-03-17T07:26:20.635Z,18.99
2023-03-17T07:27:22.763Z,19.06
2023-03-17T07:28:19.901Z,19.10
2023-03-17T07:29:19.880Z,19.14
2023-03-17T07:30:19.862Z,19.17
2023-03-17T07:31:19.965Z,19.20
2023-03-17T07:32:19.884Z,19.23
2023-03-17T07:33:19.833Z,19.21
2023-03-17T07:34:19.867Z,19.24
2023-03-17T07:35:19.862Z,19.28
2023-03-17T07:36:19.797Z,19.34
2023-03-17T07:37:19.798Z,19.34
2023-03-17T07:38:19.773Z,19.38
2023-03-17T07:39:19.727Z,19.41
2023-03-17T07:41:19.693Z,19.48
2023-03-17T07:42:19.726Z,19.52
2023-03-17T07:43:19.762Z,19.54
2023-03-17T07:44:19.650Z,19.59
2023-03-17T07:45:19.611Z,19.59
2023-03-17T07:46:19.672Z,19.64
2023-03-17T07:47:19.572Z,19.66
2023-03-17T07:48:19.546Z,19.69
2023-03-17T07:49:33.991Z,19.75
2023-03-17T07:50:20.537Z,19.75
2023-03-17T07:51:19.471Z,19.76
2023-03-17T07:52:19.432Z,19.86
2023-03-17T07:53:19.421Z,19.85
2023-03-17T07:54:20.193Z,19.89
2023-03-17T07:55:19.381Z,19.93
2023-03-17T07:56:19.318Z,19.96
2023-03-17T07:57:19.347Z,20.00
2023-03-17T07:58:19.278Z,20.03
2023-03-17T07:59:19.265Z,20.04
2023-03-17T08:00:19.288Z,20.09
2023-03-17T08:01:19.300Z,20.10
2023-03-17T08:02:19.443Z,20.14
2023-03-17T08:03:19.590Z,20.16
2023-03-17T08:04:19.409Z,20.13
2023-03-17T08:05:20.214Z,20.17
2023-03-17T08:06:19.461Z,20.19
2023-03-17T08:07:21.114Z,20.21
2023-03-17T08:08:19.530Z,20.25
2023-03-17T08:09:19.537Z,20.25
2023-03-17T08:10:21.219Z,20.28
2023-03-17T08:11:19.648Z,20.31
2023-03-17T08:12:19.653Z,20.30
2023-03-17T08:13:19.722Z,20.27
2023-03-17T08:14:20.201Z,20.31
2023-03-17T08:15:19.706Z,20.34
2023-03-17T08:16:19.772Z,20.34
2023-03-17T08:17:19.788Z,20.41
2023-03-17T08:18:19.813Z,20.39
2023-03-17T08:19:19.852Z,20.45
2023-03-17T08:20:19.829Z,20.44
2023-03-17T08:21:19.919Z,20.44
2023-03-17T08:22:20.691Z,20.45
2023-03-17T08:23:19.891Z,20.44
2023-03-17T08:24:21.612Z,20.41
2023-03-17T08:25:20.692Z,20.41
2023-03-17T08:26:20.031Z,20.39
2023-03-17T08:27:20.001Z,20.38
2023-03-17T08:28:20.048Z,20.37
2023-03-17T08:29:20.063Z,20.35
2023-03-17T08:30:20.088Z,20.32
2023-03-17T08:31:20.225Z,20.31
2023-03-17T08:32:20.156Z,20.32
2023-03-17T08:33:20.304Z,20.34
2023-03-17T08:34:21.188Z,20.32
2023-03-17T08:35:20.280Z,20.32
2023-03-17T08:36:20.279Z,20.32
2023-03-17T08:37:20.303Z,20.32
2023-03-17T08:38:20.326Z,20.31
2023-03-17T08:39:20.360Z,20.31
2023-03-17T08:40:20.397Z,20.35
2023-03-17T08:41:20.427Z,20.34
2023-03-17T08:42:20.429Z,20.35
2023-03-17T08:43:20.455Z,20.37
2023-03-17T08:44:20.474Z,20.35
2023-03-17T08:45:21.206Z,20.37
2023-03-17T08:46:20.598Z,20.32
2023-03-17T08:47:20.626Z,20.32
2023-03-17T08:48:20.622Z,20.31
2023-03-17T08:49:20.666Z,20.38
2023-03-17T08:50:20.642Z,20.34
2023-03-17T08:51:24.141Z,20.37
2023-03-17T08:52:20.640Z,20.32
2023-03-17T08:53:20.636Z,20.34
2023-03-17T08:54:20.578Z,20.32
2023-03-17T08:55:20.560Z,20.38
2023-03-17T08:56:20.629Z,20.39
2023-03-17T08:57:20.497Z,20.38
2023-03-17T08:58:21.471Z,20.41
2023-03-17T08:59:20.442Z,20.38
2023-03-17T09:00:20.493Z,20.42
2023-03-17T09:01:20.433Z,20.42
2023-03-17T09:02:20.444Z,20.45
2023-03-17T09:03:20.343Z,20.45
2023-03-17T09:04:20.313Z,20.44
2023-03-17T09:05:20.322Z,20.48
2023-03-17T09:06:20.261Z,20.49
2023-03-17T09:07:20.234Z,20.54
2023-03-17T09:08:20.224Z,20.52
2023-03-17T09:09:20.205Z,20.52
2023-03-17T09:10:20.391Z,20.58
2023-03-17T09:11:20.281Z,20.65
2023-03-17T09:12:20.301Z,20.68
2023-03-17T09:14:20.389Z,20.68
2023-03-17T09:15:20.320Z,20.64
2023-03-17T09:16:20.296Z,20.62
2023-03-17T09:17:21.207Z,20.66
2023-03-17T09:18:22.114Z,20.66
2023-03-17T09:19:20.180Z,20.62
2023-03-17T09:20:20.161Z,20.66
2023-03-17T09:21:20.125Z,20.69
2023-03-17T09:22:20.223Z,20.66
2023-03-17T09:23:20.134Z,20.68
2023-03-17T09:24:20.066Z,20.68
2023-03-17T09:25:20.032Z,20.72
2023-03-17T09:26:20.060Z,20.76
2023-03-17T09:27:20.030Z,20.76
2023-03-17T09:28:20.069Z,20.76
2023-03-17T09:29:20.082Z,20.76
2023-03-17T09:30:20.127Z,20.78
2023-03-17T09:31:20.783Z,20.75
2023-03-17T09:32:20.143Z,20.78
2023-03-17T09:33:20.638Z,20.73
2023-03-17T09:34:20.217Z,20.75
2023-03-17T09:35:20.179Z,20.78
2023-03-17T09:36:20.216Z,20.75
2023-03-17T09:37:20.189Z,20.75
2023-03-17T09:38:20.180Z,20.72
2023-03-17T09:39:20.192Z,20.72
2023-03-17T09:40:20.204Z,20.76
2023-03-17T09:41:20.214Z,20.75
2023-03-17T09:42:21.214Z,20.78
2023-03-17T09:43:20.230Z,20.78
2023-03-17T09:44:20.749Z,20.78
2023-03-17T09:45:20.335Z,20.80
2023-03-17T09:46:20.337Z,20.79
2023-03-17T09:47:20.275Z,20.82
2023-03-17T09:48:20.272Z,20.83
2023-03-17T09:49:21.224Z,20.84
2023-03-17T09:50:20.286Z,20.87
2023-03-17T09:51:20.396Z,20.90
2023-03-17T09:52:20.285Z,20.89
2023-03-17T09:53:20.292Z,20.89
2023-03-17T09:54:20.288Z,20.86
2023-03-17T09:55:20.287Z,20.87
2023-03-17T09:56:20.291Z,20.87
2023-03-17T09:57:20.298Z,20.89
2023-03-17T09:58:20.296Z,20.90
2023-03-17T09:59:20.282Z,20.96
2023-03-17T10:00:20.276Z,20.96
2023-03-17T10:01:20.288Z,20.99
2023-03-17T10:02:20.253Z,20.97
2023-03-17T10:03:20.723Z,20.99
2023-03-17T10:04:20.250Z,21.01
2023-03-17T10:05:20.263Z,21.01
2023-03-17T10:06:20.218Z,21.00
2023-03-17T10:07:20.204Z,21.04
2023-03-17T10:08:30.596Z,21.04
2023-03-17T10:09:21.165Z,21.03
2023-03-17T10:10:20.138Z,21.06
2023-03-17T10:11:20.099Z,21.04
2023-03-17T10:12:20.076Z,21.07
2023-03-17T10:13:20.032Z,21.03
2023-03-17T10:14:19.996Z,21.07
2023-03-17T10:15:19.975Z,21.06
2023-03-17T10:16:20.000Z,21.07
2023-03-17T10:17:20.231Z,21.10
2023-03-17T10:18:19.863Z,21.17
2023-03-17T10:19:19.903Z,21.17
2023-03-17T10:20:19.862Z,21.20
2023-03-17T10:21:19.772Z,21.18
2023-03-17T10:22:19.822Z,21.14
2023-03-17T10:23:20.230Z,21.15
2023-03-17T10:24:19.672Z,21.24
2023-03-17T10:25:19.758Z,21.24
2023-03-17T10:26:19.615Z,21.20
2023-03-17T10:27:21.341Z,21.13
2023-03-17T10:28:19.577Z,21.07
2023-03-17T10:29:20.233Z,21.07
2023-03-17T10:30:21.318Z,21.10
2023-03-17T10:31:20.279Z,21.10
2023-03-17T10:32:20.152Z,21.08
2023-03-17T10:33:19.604Z,21.04
2023-03-17T10:34:19.548Z,21.03
2023-03-17T10:35:19.556Z,21.01
2023-03-17T10:36:20.260Z,21.01
2023-03-17T10:37:19.545Z,21.01
2023-03-17T10:38:19.531Z,20.99
2023-03-17T10:39:20.198Z,20.97
2023-03-17T10:40:22.858Z,20.97
2023-03-17T10:41:20.234Z,20.96
2023-03-17T10:42:21.248Z,20.96
2023-03-17T10:43:20.158Z,20.96
2023-03-17T10:44:19.364Z,20.99
2023-03-17T10:45:19.334Z,20.96
2023-03-17T10:46:19.353Z,20.96
2023-03-17T10:47:19.292Z,20.97
2023-03-17T10:48:19.218Z,20.94
2023-03-17T10:49:19.742Z,20.97
2023-03-17T10:50:19.209Z,20.94
2023-03-17T10:51:19.105Z,20.96
2023-03-17T10:52:19.248Z,20.97
2023-03-17T10:53:19.026Z,21.00
2023-03-17T10:54:18.987Z,21.01
2023-03-17T10:55:20.777Z,21.04
2023-03-17T10:56:19.931Z,21.04
2023-03-17T10:57:18.889Z,21.03
2023-03-17T10:58:18.871Z,21.03
2023-03-17T10:59:18.877Z,21.03
2023-03-17T11:00:18.851Z,21.04
2023-03-17T11:01:18.770Z,21.04
2023-03-17T11:02:18.728Z,21.04
2023-03-17T11:03:18.696Z,21.06
2023-03-17T11:04:18.723Z,21.06
2023-03-17T11:05:18.618Z,21.06
2023-03-17T11:06:18.585Z,21.04
2023-03-17T11:07:18.569Z,21.07
2023-03-17T11:08:18.502Z,21.07
2023-03-17T11:09:18.509Z,21.07
2023-03-17T11:10:18.557Z,21.07
2023-03-17T11:11:18.512Z,21.11
2023-03-17T11:12:18.347Z,21.15
2023-03-17T11:13:18.345Z,21.14
2023-03-17T11:14:18.279Z,21.14
2023-03-17T11:15:18.278Z,21.14
2023-03-17T11:16:18.251Z,21.18
2023-03-17T11:17:18.186Z,21.13
2023-03-17T11:18:18.745Z,21.13
2023-03-17T11:19:18.099Z,21.13
2023-03-17T11:20:18.084Z,21.14
2023-03-17T11:21:18.047Z,21.10
2023-03-17T11:22:17.986Z,21.13
2023-03-17T11:41:18.261Z,21.03
2023-03-17T13:18:18.276Z,20.75
2023-03-17T13:22:18.276Z,20.79
2023-03-17T14:11:18.306Z,20.80
2023-03-17T14:39:18.374Z,20.80
2023-03-17T14:53:18.309Z,20.83
2023-03-17T15:06:18.314Z,20.90
2023-03-17T19:13:17.998Z,21.24
2023-03-17T19:14:18.008Z,21.25
2023-03-17T19:25:18.398Z,21.27
2023-03-17T19:44:17.982Z,21.35
2023-03-17T19:45:18.889Z,21.35
2023-03-17T19:47:17.992Z,21.31
2023-03-17T19:48:18.007Z,21.31
2023-03-17T19:49:18.053Z,21.34
2023-03-17T19:50:18.051Z,21.31
2023-03-17T19:51:18.069Z,21.33
2023-03-17T19:52:18.078Z,21.34
2023-03-17T19:53:18.110Z,21.33
2023-03-17T19:54:18.116Z,21.34
2023-03-17T19:55:18.132Z,21.35
2023-03-17T19:56:18.142Z,21.34
2023-03-17T19:57:18.177Z,21.34
2023-03-17T19:58:18.200Z,21.37
2023-03-17T19:59:18.218Z,21.37
2023-03-17T20:00:18.232Z,21.34
2023-03-17T20:01:18.271Z,21.34
2023-03-17T20:02:18.268Z,21.35
2023-03-17T20:03:18.294Z,21.35
2023-03-17T20:04:18.354Z,21.35
2023-03-17T20:05:18.331Z,21.35
2023-03-17T20:06:18.359Z,21.35
2023-03-17T20:07:18.380Z,21.37
2023-03-17T20:08:18.376Z,21.38
2023-03-17T20:09:18.386Z,21.35
2023-03-17T20:10:18.411Z,21.35
2023-03-17T20:11:18.433Z,21.35
2023-03-17T20:12:18.448Z,21.38
2023-03-17T20:13:19.406Z,21.37
2023-03-17T20:14:18.493Z,21.38
2023-03-17T20:15:18.508Z,21.37
2023-03-17T20:16:18.610Z,21.35
2023-03-17T20:17:18.530Z,21.35
2023-03-17T20:18:18.556Z,21.37
2023-03-17T20:19:18.588Z,21.40
2023-03-17T20:20:18.586Z,21.40
2023-03-17T20:21:19.402Z,21.38
2023-03-17T20:22:18.628Z,21.41
2023-03-17T20:23:18.635Z,21.40
2023-03-17T20:24:18.642Z,21.42
2023-03-17T20:25:18.659Z,21.41
2023-03-17T20:26:18.753Z,21.44
2023-03-17T20:27:18.699Z,21.41
2023-03-17T20:28:18.713Z,21.41
2023-03-17T20:29:18.787Z,21.41
2023-03-17T20:30:18.742Z,21.44
2023-03-17T20:31:18.841Z,21.40
2023-03-17T20:32:18.795Z,21.42
2023-03-17T20:33:18.803Z,21.44
2023-03-17T20:34:18.795Z,21.40
2023-03-17T20:35:18.813Z,21.42
2023-03-17T20:36:18.824Z,21.44
2023-03-17T20:37:18.845Z,21.41
2023-03-17T20:38:18.852Z,21.44
2023-03-17T20:39:18.865Z,21.44
2023-03-17T20:40:18.872Z,21.40
2023-03-17T20:41:18.898Z,21.42
2023-03-17T20:42:20.559Z,21.42
2023-03-17T20:43:18.931Z,21.41
2023-03-17T20:44:19.906Z,21.44
2023-03-17T21:23:19.586Z,21.49
2023-03-17T21:24:19.596Z,21.51
2023-03-17T21:25:19.625Z,21.49
2023-03-17T21:26:19.644Z,21.51
2023-03-17T21:28:19.657Z,21.49
2023-03-17T21:29:19.674Z,21.48
2023-03-17T21:30:19.773Z,21.51
2023-03-17T21:32:19.701Z,21.48
2023-03-17T21:33:19.714Z,21.46
2023-03-17T21:35:19.760Z,21.49
2023-03-17T21:36:19.761Z,21.49
2023-03-17T21:37:19.763Z,21.51
2023-03-17T21:38:19.774Z,21.51
2023-03-17T21:39:19.787Z,21.49
2023-03-17T21:40:19.816Z,21.51
2023-03-17T21:41:19.819Z,21.48
2023-03-17T21:42:19.836Z,21.49
2023-03-17T21:43:19.870Z,21.46
2023-03-17T21:44:19.882Z,21.51
2023-03-17T21:45:19.885Z,21.51
2023-03-17T21:46:19.892Z,21.51
2023-03-17T21:47:19.978Z,21.51
2023-03-17T21:48:19.921Z,21.49
2023-03-17T21:49:19.945Z,21.52
2023-03-17T21:50:19.962Z,21.49
2023-03-17T21:51:19.981Z,21.49
2023-03-17T21:52:20.056Z,21.51
2023-03-17T21:53:20.059Z,21.51
2023-03-17T21:54:20.027Z,21.49
2023-03-17T21:55:20.032Z,21.49
2023-03-17T21:56:20.052Z,21.52
2023-03-17T21:57:20.091Z,21.49
2023-03-17T21:58:20.085Z,21.49
2023-03-17T22:10:20.237Z,21.51
2023-03-17T22:11:20.227Z,21.52
2023-03-17T22:12:20.288Z,21.51
2023-03-17T22:13:20.246Z,21.49
2023-03-17T22:14:20.248Z,21.51
2023-03-17T22:15:20.262Z,21.51
2023-03-17T22:16:20.309Z,21.48
2023-03-17T22:17:20.933Z,21.49
2023-03-17T22:18:20.319Z,21.49
2023-03-17T22:19:21.385Z,21.53
2023-03-17T22:20:20.322Z,21.49
2023-03-17T22:21:20.353Z,21.49
2023-03-17T22:22:20.354Z,21.53
2023-03-17T22:23:20.354Z,21.51
2023-03-17T22:24:20.359Z,21.49
2023-03-17T22:25:23.192Z,21.52
2023-03-17T22:26:20.352Z,21.52
2023-03-17T22:27:20.320Z,21.49
2023-03-17T22:28:20.286Z,21.51
2023-03-17T22:29:20.270Z,21.48
2023-03-17T22:30:20.219Z,21.51
2023-03-17T22:31:20.267Z,21.49
2023-03-17T22:32:20.163Z,21.51
2023-03-17T22:33:20.138Z,21.51
2023-03-17T22:34:20.108Z,21.53
2023-03-17T22:35:20.072Z,21.52
2023-03-17T22:36:20.034Z,21.52
2023-03-17T22:37:20.011Z,21.52
2023-03-17T22:38:19.981Z,21.55
2023-03-17T22:39:19.941Z,21.51
2023-03-17T22:40:19.922Z,21.51
2023-03-17T22:41:19.908Z,21.51
2023-03-17T22:42:19.849Z,21.51
2023-03-17T22:43:19.820Z,21.51
2023-03-17T22:44:19.792Z,21.51
2023-03-17T22:45:19.765Z,21.51
2023-03-17T22:46:19.873Z,21.49
2023-03-17T22:47:19.707Z,21.51
2023-03-17T22:48:19.669Z,21.52
2023-03-17T22:49:19.639Z,21.51
2023-03-17T22:50:19.591Z,21.52
2023-03-17T22:51:19.628Z,21.49
2023-03-17T22:52:19.537Z,21.48
2023-03-17T22:53:19.510Z,21.49
2023-03-17T22:54:19.466Z,21.52
2023-03-17T22:55:19.431Z,21.46
2023-03-17T22:56:19.399Z,21.51
2023-03-17T22:57:19.362Z,21.51
2023-03-17T22:58:19.332Z,21.49
2023-03-17T22:59:19.298Z,21.51
2023-03-17T23:00:19.263Z,21.51
2023-03-17T23:01:19.285Z,21.49
2023-03-17T23:02:19.212Z,21.51
2023-03-17T23:03:19.157Z,21.49
2023-03-17T23:04:19.131Z,21.51
2023-03-17T23:05:19.102Z,21.51
2023-03-17T23:06:19.055Z,21.51
2023-03-17T23:07:19.032Z,21.51
2023-03-17T23:08:19.958Z,21.52
2023-03-17T23:09:18.956Z,21.49
2023-03-17T23:10:18.927Z,21.52
2023-03-17T23:11:18.896Z,21.49
2023-03-17T23:12:18.869Z,21.49
2023-03-17T23:13:18.958Z,21.51
2023-03-17T23:14:18.794Z,21.49
2023-03-17T23:15:18.828Z,21.49
2023-03-17T23:16:18.757Z,21.48
2023-03-17T23:17:18.691Z,21.51
2023-03-17T23:18:18.655Z,21.48
2023-03-17T23:19:18.639Z,21.48
2023-03-17T23:20:18.661Z,21.51
2023-03-17T23:21:18.558Z,21.49
2023-03-17T23:22:18.548Z,21.49
2023-03-17T23:23:18.500Z,21.49
2023-03-17T23:24:19.466Z,21.46
2023-03-17T23:25:18.436Z,21.51
2023-03-17T23:26:18.411Z,21.46
2023-03-17T23:27:18.438Z,21.51
2023-03-17T23:28:18.345Z,21.49
2023-03-17T23:29:18.357Z,21.46
2023-03-17T23:30:18.358Z,21.48
2023-03-17T23:31:18.454Z,21.45
2023-03-17T23:32:18.476Z,21.48
2023-03-17T23:33:18.401Z,21.46
2023-03-17T23:34:18.406Z,21.48
2023-03-17T23:35:18.407Z,21.46
2023-03-17T23:36:18.440Z,21.49
2023-03-17T23:37:18.425Z,21.46
2023-03-17T23:38:18.432Z,21.48
2023-03-17T23:39:18.436Z,21.49
2023-03-17T23:40:18.432Z,21.48
2023-03-17T23:41:18.439Z,21.51
2023-03-17T23:42:18.442Z,21.51
2023-03-17T23:43:18.450Z,21.49
2023-03-17T23:44:18.550Z,21.48
2023-03-17T23:45:18.509Z,21.49
2023-03-17T23:46:18.477Z,21.49
2023-03-17T23:47:18.460Z,21.46
2023-03-17T23:48:20.986Z,21.46
2023-03-17T23:49:18.539Z,21.48
2023-03-17T23:50:18.547Z,21.51
2023-03-17T23:51:18.558Z,21.49
2023-03-17T23:52:18.968Z,21.48
2023-03-17T23:53:18.564Z,21.48
2023-03-17T23:54:18.562Z,21.46
2023-03-17T23:55:18.571Z,21.45
2023-03-17T23:56:18.571Z,21.48
2023-03-17T23:57:18.591Z,21.49
2023-03-17T23:58:18.601Z,21.46
2023-03-17T23:59:18.591Z,21.46
